sensor_id;sensor_type;location;lat;lon;timestamp;P1;durP1;ratioP1;P2;durP2;ratioP2
79761;SDS011;69249;42.122;24.734;2023-07-13T00:00:12;13.25;;;10.85;;
79761;SDS011;69249;42.122;24.734;2023-07-13T00:02:41;12.82;;;10.50;;
79761;SDS011;69249;42.122;24.734;2023-07-13T00:05:07;11.50;;;10.25;;
79761;SDS011;69249;42.122;24.734;2023-07-13T00:07:34;13.93;;;9.93;;
79761;SDS011;69249;42.122;24.734;2023-07-13T00:10:00;14.52;;;11.02;;
79761;SDS011;69249;42.122;24.734;2023-07-13T00:14:57;12.30;;;9.98;;
79761;SDS011;69249;42.122;24.734;2023-07-13T00:17:25;10.23;;;9.15;;
79761;SDS011;69249;42.122;24.734;2023-07-13T00:19:51;14.82;;;10.15;;
79761;SDS011;69249;42.122;24.734;2023-07-13T00:22:18;12.27;;;9.90;;
79761;SDS011;69249;42.122;24.734;2023-07-13T00:24:44;14.05;;;11.00;;
79761;SDS011;69249;42.122;24.734;2023-07-13T00:27:10;14.15;;;10.35;;
79761;SDS011;69249;42.122;24.734;2023-07-13T00:29:37;12.43;;;9.77;;
79761;SDS011;69249;42.122;24.734;2023-07-13T00:32:03;10.60;;;9.55;;
79761;SDS011;69249;42.122;24.734;2023-07-13T00:34:30;11.77;;;9.35;;
79761;SDS011;69249;42.122;24.734;2023-07-13T00:36:56;13.50;;;9.40;;
79761;SDS011;69249;42.122;24.734;2023-07-13T00:39:22;11.20;;;9.43;;
79761;SDS011;69249;42.122;24.734;2023-07-13T00:41:48;10.68;;;8.52;;
79761;SDS011;69249;42.122;24.734;2023-07-13T00:44:14;10.00;;;9.00;;
79761;SDS011;69249;42.122;24.734;2023-07-13T00:46:41;12.23;;;9.02;;
79761;SDS011;69249;42.122;24.734;2023-07-13T00:49:11;10.43;;;8.98;;
79761;SDS011;69249;42.122;24.734;2023-07-13T00:51:48;10.95;;;8.40;;
79761;SDS011;69249;42.122;24.734;2023-07-13T00:54:41;13.05;;;8.13;;
79761;SDS011;69249;42.122;24.734;2023-07-13T00:57:10;11.63;;;8.77;;
79761;SDS011;69249;42.122;24.734;2023-07-13T00:59:40;10.07;;;8.43;;
79761;SDS011;69249;42.122;24.734;2023-07-13T01:02:08;12.30;;;8.52;;
79761;SDS011;69249;42.122;24.734;2023-07-13T01:04:35;14.75;;;8.75;;
79761;SDS011;69249;42.122;24.734;2023-07-13T01:07:00;12.13;;;8.63;;
79761;SDS011;69249;42.122;24.734;2023-07-13T01:09:26;9.85;;;8.77;;
79761;SDS011;69249;42.122;24.734;2023-07-13T01:11:52;13.00;;;8.60;;
79761;SDS011;69249;42.122;24.734;2023-07-13T01:14:18;11.18;;;8.48;;
79761;SDS011;69249;42.122;24.734;2023-07-13T01:16:45;11.68;;;8.50;;
79761;SDS011;69249;42.122;24.734;2023-07-13T01:22:11;10.25;;;9.15;;
79761;SDS011;69249;42.122;24.734;2023-07-13T01:24:39;9.88;;;8.82;;
79761;SDS011;69249;42.122;24.734;2023-07-13T01:27:07;11.20;;;8.60;;
79761;SDS011;69249;42.122;24.734;2023-07-13T01:29:35;11.35;;;9.27;;
79761;SDS011;69249;42.122;24.734;2023-07-13T01:32:12;9.93;;;8.93;;
79761;SDS011;69249;42.122;24.734;2023-07-13T01:34:40;9.82;;;8.65;;
79761;SDS011;69249;42.122;24.734;2023-07-13T01:37:07;10.43;;;8.73;;
79761;SDS011;69249;42.122;24.734;2023-07-13T01:39:34;11.85;;;9.23;;
79761;SDS011;69249;42.122;24.734;2023-07-13T01:42:00;17.25;;;9.15;;
79761;SDS011;69249;42.122;24.734;2023-07-13T01:44:26;11.50;;;9.68;;
79761;SDS011;69249;42.122;24.734;2023-07-13T01:46:52;14.10;;;9.15;;
79761;SDS011;69249;42.122;24.734;2023-07-13T01:49:18;11.45;;;9.00;;
79761;SDS011;69249;42.122;24.734;2023-07-13T01:51:44;14.25;;;9.02;;
79761;SDS011;69249;42.122;24.734;2023-07-13T01:54:09;9.70;;;8.70;;
79761;SDS011;69249;42.122;24.734;2023-07-13T01:56:35;12.82;;;8.77;;
79761;SDS011;69249;42.122;24.734;2023-07-13T01:59:01;11.18;;;8.27;;
79761;SDS011;69249;42.122;24.734;2023-07-13T02:01:26;11.50;;;9.23;;
79761;SDS011;69249;42.122;24.734;2023-07-13T02:03:52;10.07;;;8.45;;
79761;SDS011;69249;42.122;24.734;2023-07-13T02:06:18;8.95;;;8.05;;
79761;SDS011;69249;42.122;24.734;2023-07-13T02:08:43;10.60;;;8.70;;
79761;SDS011;69249;42.122;24.734;2023-07-13T02:11:09;11.93;;;9.05;;
79761;SDS011;69249;42.122;24.734;2023-07-13T02:13:35;11.73;;;9.18;;
79761;SDS011;69249;42.122;24.734;2023-07-13T02:16:00;9.23;;;8.10;;
79761;SDS011;69249;42.122;24.734;2023-07-13T02:18:26;9.60;;;8.07;;
79761;SDS011;69249;42.122;24.734;2023-07-13T02:20:52;10.65;;;8.10;;
79761;SDS011;69249;42.122;24.734;2023-07-13T02:23:18;13.25;;;8.82;;
79761;SDS011;69249;42.122;24.734;2023-07-13T02:25:43;10.57;;;8.20;;
79761;SDS011;69249;42.122;24.734;2023-07-13T02:28:10;11.80;;;8.60;;
79761;SDS011;69249;42.122;24.734;2023-07-13T02:30:35;12.10;;;8.57;;
79761;SDS011;69249;42.122;24.734;2023-07-13T02:33:01;13.13;;;9.38;;
79761;SDS011;69249;42.122;24.734;2023-07-13T02:35:27;11.60;;;8.82;;
79761;SDS011;69249;42.122;24.734;2023-07-13T02:37:53;9.95;;;8.95;;
79761;SDS011;69249;42.122;24.734;2023-07-13T02:40:19;9.27;;;8.27;;
79761;SDS011;69249;42.122;24.734;2023-07-13T02:42:45;9.93;;;8.35;;
79761;SDS011;69249;42.122;24.734;2023-07-13T02:45:11;13.98;;;8.45;;
79761;SDS011;69249;42.122;24.734;2023-07-13T02:47:39;11.18;;;8.05;;
79761;SDS011;69249;42.122;24.734;2023-07-13T02:50:06;12.55;;;8.52;;
79761;SDS011;69249;42.122;24.734;2023-07-13T02:52:32;11.27;;;8.88;;
79761;SDS011;69249;42.122;24.734;2023-07-13T02:54:57;11.02;;;8.40;;
79761;SDS011;69249;42.122;24.734;2023-07-13T02:57:23;11.15;;;8.48;;
79761;SDS011;69249;42.122;24.734;2023-07-13T02:59:49;11.18;;;8.18;;
79761;SDS011;69249;42.122;24.734;2023-07-13T03:02:15;14.52;;;8.77;;
79761;SDS011;69249;42.122;24.734;2023-07-13T03:04:41;10.15;;;7.97;;
79761;SDS011;69249;42.122;24.734;2023-07-13T03:07:09;9.65;;;8.13;;
79761;SDS011;69249;42.122;24.734;2023-07-13T03:09:35;22.17;;;7.97;;
79761;SDS011;69249;42.122;24.734;2023-07-13T03:12:01;14.45;;;8.55;;
79761;SDS011;69249;42.122;24.734;2023-07-13T03:14:27;9.38;;;7.90;;
79761;SDS011;69249;42.122;24.734;2023-07-13T03:16:53;9.63;;;8.07;;
79761;SDS011;69249;42.122;24.734;2023-07-13T03:19:19;11.18;;;8.02;;
79761;SDS011;69249;42.122;24.734;2023-07-13T03:21:45;8.55;;;7.65;;
79761;SDS011;69249;42.122;24.734;2023-07-13T03:24:10;8.93;;;7.30;;
79761;SDS011;69249;42.122;24.734;2023-07-13T03:26:36;11.15;;;7.93;;
79761;SDS011;69249;42.122;24.734;2023-07-13T03:29:04;9.65;;;7.88;;
79761;SDS011;69249;42.122;24.734;2023-07-13T03:31:31;8.52;;;7.38;;
79761;SDS011;69249;42.122;24.734;2023-07-13T03:33:58;13.80;;;8.18;;
79761;SDS011;69249;42.122;24.734;2023-07-13T03:36:24;8.68;;;7.57;;
79761;SDS011;69249;42.122;24.734;2023-07-13T03:38:53;11.85;;;8.20;;
79761;SDS011;69249;42.122;24.734;2023-07-13T03:41:22;9.70;;;7.60;;
79761;SDS011;69249;42.122;24.734;2023-07-13T03:43:49;10.82;;;7.78;;
79761;SDS011;69249;42.122;24.734;2023-07-13T03:46:15;9.23;;;8.05;;
79761;SDS011;69249;42.122;24.734;2023-07-13T03:48:45;15.70;;;9.27;;
79761;SDS011;69249;42.122;24.734;2023-07-13T03:51:12;15.38;;;8.60;;
79761;SDS011;69249;42.122;24.734;2023-07-13T03:53:40;14.15;;;9.05;;
79761;SDS011;69249;42.122;24.734;2023-07-13T03:56:07;11.73;;;7.97;;
79761;SDS011;69249;42.122;24.734;2023-07-13T04:01:01;16.70;;;10.30;;
79761;SDS011;69249;42.122;24.734;2023-07-13T04:03:28;12.15;;;8.48;;
79761;SDS011;69249;42.122;24.734;2023-07-13T04:05:57;15.90;;;8.60;;
79761;SDS011;69249;42.122;24.734;2023-07-13T04:08:25;14.77;;;7.68;;
79761;SDS011;69249;42.122;24.734;2023-07-13T04:10:56;15.88;;;8.40;;
79761;SDS011;69249;42.122;24.734;2023-07-13T04:13:23;11.35;;;8.05;;
79761;SDS011;69249;42.122;24.734;2023-07-13T04:15:49;12.18;;;8.43;;
79761;SDS011;69249;42.122;24.734;2023-07-13T04:18:15;13.15;;;8.80;;
79761;SDS011;69249;42.122;24.734;2023-07-13T04:20:41;16.63;;;8.65;;
79761;SDS011;69249;42.122;24.734;2023-07-13T04:23:07;15.13;;;9.25;;
79761;SDS011;69249;42.122;24.734;2023-07-13T04:25:32;15.70;;;8.95;;
79761;SDS011;69249;42.122;24.734;2023-07-13T04:27:58;15.27;;;8.35;;
79761;SDS011;69249;42.122;24.734;2023-07-13T04:30:24;22.35;;;8.90;;
79761;SDS011;69249;42.122;24.734;2023-07-13T04:32:53;13.98;;;8.50;;
79761;SDS011;69249;42.122;24.734;2023-07-13T04:35:19;13.30;;;8.77;;
79761;SDS011;69249;42.122;24.734;2023-07-13T04:37:48;16.48;;;8.00;;
79761;SDS011;69249;42.122;24.734;2023-07-13T04:40:16;14.05;;;8.48;;
79761;SDS011;69249;42.122;24.734;2023-07-13T04:42:42;19.13;;;8.85;;
79761;SDS011;69249;42.122;24.734;2023-07-13T04:45:09;11.73;;;8.60;;
79761;SDS011;69249;42.122;24.734;2023-07-13T04:47:35;16.45;;;8.93;;
79761;SDS011;69249;42.122;24.734;2023-07-13T04:50:01;13.77;;;8.55;;
79761;SDS011;69249;42.122;24.734;2023-07-13T04:52:27;17.35;;;9.50;;
79761;SDS011;69249;42.122;24.734;2023-07-13T04:54:53;16.40;;;9.90;;
79761;SDS011;69249;42.122;24.734;2023-07-13T04:57:19;15.77;;;8.95;;
79761;SDS011;69249;42.122;24.734;2023-07-13T04:59:45;17.98;;;9.60;;
79761;SDS011;69249;42.122;24.734;2023-07-13T05:02:10;15.02;;;9.18;;
79761;SDS011;69249;42.122;24.734;2023-07-13T05:04:36;16.20;;;9.45;;
79761;SDS011;69249;42.122;24.734;2023-07-13T05:07:02;14.57;;;9.98;;
79761;SDS011;69249;42.122;24.734;2023-07-13T05:09:27;11.27;;;8.85;;
79761;SDS011;69249;42.122;24.734;2023-07-13T05:11:53;10.65;;;9.50;;
79761;SDS011;69249;42.122;24.734;2023-07-13T05:14:19;12.25;;;9.57;;
79761;SDS011;69249;42.122;24.734;2023-07-13T05:16:44;13.85;;;9.40;;
79761;SDS011;69249;42.122;24.734;2023-07-13T05:19:11;11.02;;;9.80;;
79761;SDS011;69249;42.122;24.734;2023-07-13T05:21:37;13.15;;;9.70;;
79761;SDS011;69249;42.122;24.734;2023-07-13T05:24:03;17.15;;;9.90;;
79761;SDS011;69249;42.122;24.734;2023-07-13T05:26:28;11.88;;;9.90;;
79761;SDS011;69249;42.122;24.734;2023-07-13T05:28:54;17.98;;;10.80;;
79761;SDS011;69249;42.122;24.734;2023-07-13T05:31:19;13.25;;;10.27;;
79761;SDS011;69249;42.122;24.734;2023-07-13T05:33:45;18.10;;;10.70;;
79761;SDS011;69249;42.122;24.734;2023-07-13T05:36:11;11.52;;;9.55;;
79761;SDS011;69249;42.122;24.734;2023-07-13T05:38:37;12.77;;;10.35;;
79761;SDS011;69249;42.122;24.734;2023-07-13T05:41:02;18.23;;;10.70;;
79761;SDS011;69249;42.122;24.734;2023-07-13T05:43:28;16.95;;;10.60;;
79761;SDS011;69249;42.122;24.734;2023-07-13T05:45:54;12.60;;;10.30;;
79761;SDS011;69249;42.122;24.734;2023-07-13T05:48:21;15.95;;;10.90;;
79761;SDS011;69249;42.122;24.734;2023-07-13T05:50:47;13.15;;;9.77;;
79761;SDS011;69249;42.122;24.734;2023-07-13T05:53:13;11.93;;;10.10;;
79761;SDS011;69249;42.122;24.734;2023-07-13T05:55:45;16.83;;;10.65;;
79761;SDS011;69249;42.122;24.734;2023-07-13T05:58:18;11.52;;;10.35;;
79761;SDS011;69249;42.122;24.734;2023-07-13T06:00:44;13.88;;;9.63;;
79761;SDS011;69249;42.122;24.734;2023-07-13T06:03:11;21.48;;;10.80;;
79761;SDS011;69249;42.122;24.734;2023-07-13T06:05:36;14.00;;;10.00;;
79761;SDS011;69249;42.122;24.734;2023-07-13T06:08:04;14.73;;;10.25;;
79761;SDS011;69249;42.122;24.734;2023-07-13T06:10:34;13.70;;;9.88;;
79761;SDS011;69249;42.122;24.734;2023-07-13T06:13:00;12.63;;;9.48;;
79761;SDS011;69249;42.122;24.734;2023-07-13T06:15:26;17.60;;;11.25;;
79761;SDS011;69249;42.122;24.734;2023-07-13T06:17:51;17.45;;;10.63;;
79761;SDS011;69249;42.122;24.734;2023-07-13T06:20:17;17.90;;;9.90;;
79761;SDS011;69249;42.122;24.734;2023-07-13T06:22:43;12.77;;;10.05;;
79761;SDS011;69249;42.122;24.734;2023-07-13T06:25:08;17.40;;;10.38;;
79761;SDS011;69249;42.122;24.734;2023-07-13T06:27:34;18.05;;;10.13;;
79761;SDS011;69249;42.122;24.734;2023-07-13T06:30:00;17.98;;;10.52;;
79761;SDS011;69249;42.122;24.734;2023-07-13T06:32:26;11.40;;;10.20;;
79761;SDS011;69249;42.122;24.734;2023-07-13T06:34:51;12.48;;;9.30;;
79761;SDS011;69249;42.122;24.734;2023-07-13T06:37:17;13.00;;;10.07;;
79761;SDS011;69249;42.122;24.734;2023-07-13T06:39:43;11.90;;;9.52;;
79761;SDS011;69249;42.122;24.734;2023-07-13T06:42:09;10.32;;;8.45;;
79761;SDS011;69249;42.122;24.734;2023-07-13T06:44:35;10.13;;;9.00;;
79761;SDS011;69249;42.122;24.734;2023-07-13T06:47:01;13.57;;;10.18;;
79761;SDS011;69249;42.122;24.734;2023-07-13T06:49:27;12.77;;;9.48;;
79761;SDS011;69249;42.122;24.734;2023-07-13T06:51:53;17.10;;;9.32;;
79761;SDS011;69249;42.122;24.734;2023-07-13T06:54:18;18.13;;;10.13;;
79761;SDS011;69249;42.122;24.734;2023-07-13T06:56:44;13.00;;;9.45;;
79761;SDS011;69249;42.122;24.734;2023-07-13T06:59:10;10.90;;;8.90;;
79761;SDS011;69249;42.122;24.734;2023-07-13T07:01:35;10.35;;;9.35;;
79761;SDS011;69249;42.122;24.734;2023-07-13T07:04:01;11.60;;;10.15;;
79761;SDS011;69249;42.122;24.734;2023-07-13T07:06:28;15.90;;;9.75;;
79761;SDS011;69249;42.122;24.734;2023-07-13T07:08:53;12.35;;;9.95;;
79761;SDS011;69249;42.122;24.734;2023-07-13T07:11:22;11.00;;;9.15;;
79761;SDS011;69249;42.122;24.734;2023-07-13T07:13:50;13.80;;;9.73;;
79761;SDS011;69249;42.122;24.734;2023-07-13T07:16:16;12.77;;;9.18;;
79761;SDS011;69249;42.122;24.734;2023-07-13T07:18:43;15.77;;;9.80;;
79761;SDS011;69249;42.122;24.734;2023-07-13T07:21:09;14.23;;;9.82;;
79761;SDS011;69249;42.122;24.734;2023-07-13T07:23:35;14.88;;;9.90;;
79761;SDS011;69249;42.122;24.734;2023-07-13T07:26:00;11.85;;;8.85;;
79761;SDS011;69249;42.122;24.734;2023-07-13T07:28:26;15.57;;;10.10;;
79761;SDS011;69249;42.122;24.734;2023-07-13T07:30:54;17.05;;;9.90;;
79761;SDS011;69249;42.122;24.734;2023-07-13T07:33:21;12.52;;;9.90;;
79761;SDS011;69249;42.122;24.734;2023-07-13T07:35:47;13.13;;;10.52;;
79761;SDS011;69249;42.122;24.734;2023-07-13T07:38:12;11.52;;;10.32;;
79761;SDS011;69249;42.122;24.734;2023-07-13T07:40:39;12.30;;;9.70;;
79761;SDS011;69249;42.122;24.734;2023-07-13T07:43:06;13.10;;;9.98;;
79761;SDS011;69249;42.122;24.734;2023-07-13T07:45:33;18.17;;;10.07;;
79761;SDS011;69249;42.122;24.734;2023-07-13T07:47:59;12.27;;;9.75;;
79761;SDS011;69249;42.122;24.734;2023-07-13T07:50:25;12.63;;;9.60;;
79761;SDS011;69249;42.122;24.734;2023-07-13T07:52:52;15.98;;;9.45;;
79761;SDS011;69249;42.122;24.734;2023-07-13T07:55:18;13.45;;;9.32;;
79761;SDS011;69249;42.122;24.734;2023-07-13T07:57:44;13.60;;;9.52;;
79761;SDS011;69249;42.122;24.734;2023-07-13T08:00:10;13.90;;;9.15;;
79761;SDS011;69249;42.122;24.734;2023-07-13T08:02:36;13.10;;;9.15;;
79761;SDS011;69249;42.122;24.734;2023-07-13T08:05:02;11.65;;;8.50;;
79761;SDS011;69249;42.122;24.734;2023-07-13T08:07:30;12.10;;;8.82;;
79761;SDS011;69249;42.122;24.734;2023-07-13T08:09:56;13.15;;;10.05;;
79761;SDS011;69249;42.122;24.734;2023-07-13T08:12:22;12.25;;;9.15;;
79761;SDS011;69249;42.122;24.734;2023-07-13T08:14:49;10.73;;;8.75;;
79761;SDS011;69249;42.122;24.734;2023-07-13T08:17:33;12.95;;;8.82;;
79761;SDS011;69249;42.122;24.734;2023-07-13T08:19:59;10.50;;;8.52;;
79761;SDS011;69249;42.122;24.734;2023-07-13T08:22:24;18.42;;;9.63;;
79761;SDS011;69249;42.122;24.734;2023-07-13T08:24:50;13.35;;;9.15;;
79761;SDS011;69249;42.122;24.734;2023-07-13T08:27:24;20.95;;;9.10;;
79761;SDS011;69249;42.122;24.734;2023-07-13T08:29:51;11.07;;;8.50;;
79761;SDS011;69249;42.122;24.734;2023-07-13T08:32:17;13.77;;;8.52;;
79761;SDS011;69249;42.122;24.734;2023-07-13T08:34:44;10.80;;;8.57;;
79761;SDS011;69249;42.122;24.734;2023-07-13T08:37:09;16.90;;;9.20;;
79761;SDS011;69249;42.122;24.734;2023-07-13T08:39:35;12.63;;;8.90;;
79761;SDS011;69249;42.122;24.734;2023-07-13T08:42:11;11.88;;;8.90;;
79761;SDS011;69249;42.122;24.734;2023-07-13T08:48:05;11.68;;;8.32;;
79761;SDS011;69249;42.122;24.734;2023-07-13T08:50:35;11.15;;;8.35;;
79761;SDS011;69249;42.122;24.734;2023-07-13T08:53:14;13.85;;;8.82;;
79761;SDS011;69249;42.122;24.734;2023-07-13T08:55:41;14.95;;;8.88;;
79761;SDS011;69249;42.122;24.734;2023-07-13T08:58:12;10.80;;;8.80;;
79761;SDS011;69249;42.122;24.734;2023-07-13T09:03:46;11.73;;;8.90;;
79761;SDS011;69249;42.122;24.734;2023-07-13T09:06:16;11.63;;;8.85;;
79761;SDS011;69249;42.122;24.734;2023-07-13T09:16:51;15.00;;;7.80;;
79761;SDS011;69249;42.122;24.734;2023-07-13T09:19:21;10.32;;;8.25;;
79761;SDS011;69249;42.122;24.734;2023-07-13T09:21:52;9.90;;;8.40;;
79761;SDS011;69249;42.122;24.734;2023-07-13T09:26:56;18.33;;;8.95;;
79761;SDS011;69249;42.122;24.734;2023-07-13T09:29:30;9.25;;;8.00;;
79761;SDS011;69249;42.122;24.734;2023-07-13T09:32:03;9.50;;;7.35;;
79761;SDS011;69249;42.122;24.734;2023-07-13T09:34:32;10.63;;;7.07;;
79761;SDS011;69249;42.122;24.734;2023-07-13T09:36:58;10.95;;;7.15;;
79761;SDS011;69249;42.122;24.734;2023-07-13T09:44:44;9.52;;;7.10;;
79761;SDS011;69249;42.122;24.734;2023-07-13T09:47:28;9.38;;;6.80;;
79761;SDS011;69249;42.122;24.734;2023-07-13T09:52:41;16.55;;;7.03;;
79761;SDS011;69249;42.122;24.734;2023-07-13T09:58:16;7.10;;;6.40;;
79761;SDS011;69249;42.122;24.734;2023-07-13T10:00:56;9.05;;;6.07;;
79761;SDS011;69249;42.122;24.734;2023-07-13T10:03:30;11.00;;;6.40;;
79761;SDS011;69249;42.122;24.734;2023-07-13T10:06:18;11.13;;;6.10;;
79761;SDS011;69249;42.122;24.734;2023-07-13T10:08:47;7.45;;;6.30;;
79761;SDS011;69249;42.122;24.734;2023-07-13T10:11:17;13.25;;;6.60;;
79761;SDS011;69249;42.122;24.734;2023-07-13T10:13:53;8.95;;;5.47;;
79761;SDS011;69249;42.122;24.734;2023-07-13T10:16:25;9.30;;;5.72;;
79761;SDS011;69249;42.122;24.734;2023-07-13T10:18:56;9.05;;;5.50;;
79761;SDS011;69249;42.122;24.734;2023-07-13T10:21:27;9.50;;;5.72;;
79761;SDS011;69249;42.122;24.734;2023-07-13T10:24:00;7.65;;;5.50;;
79761;SDS011;69249;42.122;24.734;2023-07-13T10:26:36;8.02;;;5.50;;
79761;SDS011;69249;42.122;24.734;2023-07-13T10:29:11;9.18;;;5.05;;
79761;SDS011;69249;42.122;24.734;2023-07-13T10:31:39;7.20;;;5.60;;
79761;SDS011;69249;42.122;24.734;2023-07-13T10:34:09;7.93;;;5.95;;
79761;SDS011;69249;42.122;24.734;2023-07-13T10:36:40;10.98;;;5.78;;
79761;SDS011;69249;42.122;24.734;2023-07-13T10:39:22;6.60;;;5.70;;
79761;SDS011;69249;42.122;24.734;2023-07-13T10:41:55;7.70;;;5.70;;
79761;SDS011;69249;42.122;24.734;2023-07-13T10:44:29;8.45;;;5.38;;
79761;SDS011;69249;42.122;24.734;2023-07-13T10:46:58;8.93;;;5.45;;
79761;SDS011;69249;42.122;24.734;2023-07-13T10:49:33;8.75;;;5.93;;
79761;SDS011;69249;42.122;24.734;2023-07-13T10:52:01;5.75;;;5.25;;
79761;SDS011;69249;42.122;24.734;2023-07-13T10:59:46;6.60;;;5.40;;
79761;SDS011;69249;42.122;24.734;2023-07-13T11:02:27;6.68;;;5.68;;
79761;SDS011;69249;42.122;24.734;2023-07-13T11:04:54;7.57;;;5.57;;
79761;SDS011;69249;42.122;24.734;2023-07-13T11:07:29;9.27;;;5.18;;
79761;SDS011;69249;42.122;24.734;2023-07-13T11:09:57;8.02;;;5.20;;
79761;SDS011;69249;42.122;24.734;2023-07-13T11:25:38;6.57;;;5.28;;
79761;SDS011;69249;42.122;24.734;2023-07-13T11:28:06;5.40;;;4.90;;
79761;SDS011;69249;42.122;24.734;2023-07-13T11:38:32;8.77;;;4.85;;
79761;SDS011;69249;42.122;24.734;2023-07-13T11:41:26;7.60;;;4.75;;
79761;SDS011;69249;42.122;24.734;2023-07-13T11:43:54;7.43;;;4.47;;
79761;SDS011;69249;42.122;24.734;2023-07-13T11:46:21;5.47;;;4.05;;
79761;SDS011;69249;42.122;24.734;2023-07-13T11:48:52;6.82;;;4.43;;
79761;SDS011;69249;42.122;24.734;2023-07-13T11:51:22;7.95;;;4.88;;
79761;SDS011;69249;42.122;24.734;2023-07-13T11:54:00;6.50;;;4.60;;
79761;SDS011;69249;42.122;24.734;2023-07-13T11:56:32;10.75;;;4.65;;
79761;SDS011;69249;42.122;24.734;2023-07-13T11:58:59;6.13;;;4.90;;
79761;SDS011;69249;42.122;24.734;2023-07-13T12:01:30;7.57;;;4.78;;
79761;SDS011;69249;42.122;24.734;2023-07-13T12:04:01;7.47;;;5.00;;
79761;SDS011;69249;42.122;24.734;2023-07-13T12:06:34;7.03;;;4.82;;
79761;SDS011;69249;42.122;24.734;2023-07-13T12:09:11;9.82;;;5.32;;
79761;SDS011;69249;42.122;24.734;2023-07-13T12:11:45;8.45;;;4.53;;
79761;SDS011;69249;42.122;24.734;2023-07-13T12:14:17;5.68;;;4.32;;
79761;SDS011;69249;42.122;24.734;2023-07-13T12:16:44;7.28;;;4.85;;
79761;SDS011;69249;42.122;24.734;2023-07-13T12:21:47;7.35;;;4.57;;
79761;SDS011;69249;42.122;24.734;2023-07-13T12:24:16;7.72;;;4.65;;
79761;SDS011;69249;42.122;24.734;2023-07-13T12:26:43;10.13;;;4.85;;
79761;SDS011;69249;42.122;24.734;2023-07-13T12:29:14;10.48;;;4.93;;
79761;SDS011;69249;42.122;24.734;2023-07-13T12:31:43;12.15;;;4.85;;
79761;SDS011;69249;42.122;24.734;2023-07-13T12:34:12;12.82;;;4.57;;
79761;SDS011;69249;42.122;24.734;2023-07-13T12:36:40;12.43;;;4.85;;
79761;SDS011;69249;42.122;24.734;2023-07-13T12:39:15;11.15;;;4.72;;
79761;SDS011;69249;42.122;24.734;2023-07-13T12:41:47;8.25;;;4.70;;
79761;SDS011;69249;42.122;24.734;2023-07-13T12:44:18;12.15;;;5.97;;
79761;SDS011;69249;42.122;24.734;2023-07-13T12:47:04;9.68;;;4.88;;
79761;SDS011;69249;42.122;24.734;2023-07-13T12:49:39;10.73;;;5.53;;
79761;SDS011;69249;42.122;24.734;2023-07-13T12:52:12;13.30;;;5.13;;
79761;SDS011;69249;42.122;24.734;2023-07-13T12:54:41;8.95;;;5.03;;
79761;SDS011;69249;42.122;24.734;2023-07-13T12:57:08;8.32;;;5.68;;
79761;SDS011;69249;42.122;24.734;2023-07-13T12:59:41;10.43;;;5.70;;
79761;SDS011;69249;42.122;24.734;2023-07-13T13:04:57;8.68;;;5.63;;
79761;SDS011;69249;42.122;24.734;2023-07-13T13:07:23;12.75;;;5.55;;
79761;SDS011;69249;42.122;24.734;2023-07-13T13:09:50;10.98;;;5.60;;
79761;SDS011;69249;42.122;24.734;2023-07-13T13:12:16;8.38;;;5.50;;
79761;SDS011;69249;42.122;24.734;2023-07-13T13:14:42;11.57;;;5.57;;
79761;SDS011;69249;42.122;24.734;2023-07-13T13:17:18;11.00;;;5.80;;
79761;SDS011;69249;42.122;24.734;2023-07-13T13:19:46;11.63;;;5.82;;
79761;SDS011;69249;42.122;24.734;2023-07-13T13:22:12;12.75;;;5.45;;
79761;SDS011;69249;42.122;24.734;2023-07-13T13:24:38;9.95;;;5.65;;
79761;SDS011;69249;42.122;24.734;2023-07-13T13:27:04;12.90;;;5.65;;
79761;SDS011;69249;42.122;24.734;2023-07-13T13:29:31;8.10;;;5.30;;
79761;SDS011;69249;42.122;24.734;2023-07-13T13:31:58;13.70;;;5.68;;
79761;SDS011;69249;42.122;24.734;2023-07-13T13:34:24;10.10;;;5.18;;
79761;SDS011;69249;42.122;24.734;2023-07-13T13:36:51;12.05;;;5.28;;
79761;SDS011;69249;42.122;24.734;2023-07-13T13:39:20;12.77;;;5.22;;
79761;SDS011;69249;42.122;24.734;2023-07-13T13:41:52;9.55;;;5.38;;
79761;SDS011;69249;42.122;24.734;2023-07-13T13:44:18;12.82;;;5.75;;
79761;SDS011;69249;42.122;24.734;2023-07-13T13:46:47;14.13;;;5.43;;
79761;SDS011;69249;42.122;24.734;2023-07-13T13:49:16;13.70;;;5.75;;
79761;SDS011;69249;42.122;24.734;2023-07-13T13:51:44;12.10;;;5.20;;
79761;SDS011;69249;42.122;24.734;2023-07-13T13:54:11;12.30;;;5.45;;
79761;SDS011;69249;42.122;24.734;2023-07-13T13:56:40;11.35;;;5.35;;
79761;SDS011;69249;42.122;24.734;2023-07-13T13:59:07;7.95;;;5.13;;
79761;SDS011;69249;42.122;24.734;2023-07-13T14:01:33;8.55;;;5.43;;
79761;SDS011;69249;42.122;24.734;2023-07-13T14:04:00;10.57;;;5.15;;
79761;SDS011;69249;42.122;24.734;2023-07-13T14:06:25;12.38;;;5.25;;
79761;SDS011;69249;42.122;24.734;2023-07-13T14:08:52;10.90;;;5.35;;
79761;SDS011;69249;42.122;24.734;2023-07-13T14:11:20;11.88;;;6.28;;
79761;SDS011;69249;42.122;24.734;2023-07-13T14:13:56;13.85;;;5.85;;
79761;SDS011;69249;42.122;24.734;2023-07-13T14:16:26;15.25;;;6.30;;
79761;SDS011;69249;42.122;24.734;2023-07-13T14:18:54;13.45;;;6.00;;
79761;SDS011;69249;42.122;24.734;2023-07-13T14:21:23;9.73;;;5.85;;
79761;SDS011;69249;42.122;24.734;2023-07-13T14:23:49;15.73;;;6.38;;
79761;SDS011;69249;42.122;24.734;2023-07-13T14:26:25;13.80;;;5.40;;
79761;SDS011;69249;42.122;24.734;2023-07-13T14:28:55;11.63;;;5.40;;
79761;SDS011;69249;42.122;24.734;2023-07-13T14:31:23;12.20;;;5.73;;
79761;SDS011;69249;42.122;24.734;2023-07-13T14:33:49;10.23;;;5.70;;
79761;SDS011;69249;42.122;24.734;2023-07-13T14:36:34;13.35;;;5.88;;
79761;SDS011;69249;42.122;24.734;2023-07-13T14:39:14;12.68;;;5.93;;
79761;SDS011;69249;42.122;24.734;2023-07-13T14:41:42;13.43;;;5.90;;
79761;SDS011;69249;42.122;24.734;2023-07-13T14:44:11;15.23;;;6.03;;
79761;SDS011;69249;42.122;24.734;2023-07-13T14:46:42;9.93;;;5.97;;
79761;SDS011;69249;42.122;24.734;2023-07-13T14:51:35;16.55;;;6.63;;
79761;SDS011;69249;42.122;24.734;2023-07-13T14:54:03;16.67;;;5.72;;
79761;SDS011;69249;42.122;24.734;2023-07-13T14:56:30;13.45;;;5.40;;
79761;SDS011;69249;42.122;24.734;2023-07-13T14:58:56;11.35;;;6.07;;
79761;SDS011;69249;42.122;24.734;2023-07-13T15:01:22;13.27;;;6.43;;
79761;SDS011;69249;42.122;24.734;2023-07-13T15:03:48;16.40;;;5.95;;
79761;SDS011;69249;42.122;24.734;2023-07-13T15:06:16;13.45;;;5.43;;
79761;SDS011;69249;42.122;24.734;2023-07-13T15:08:44;18.85;;;6.03;;
79761;SDS011;69249;42.122;24.734;2023-07-13T15:11:10;14.95;;;5.85;;
79761;SDS011;69249;42.122;24.734;2023-07-13T15:13:37;16.17;;;6.00;;
79761;SDS011;69249;42.122;24.734;2023-07-13T15:16:04;11.13;;;5.45;;
79761;SDS011;69249;42.122;24.734;2023-07-13T15:18:38;16.73;;;6.10;;
79761;SDS011;69249;42.122;24.734;2023-07-13T15:21:08;12.10;;;5.43;;
79761;SDS011;69249;42.122;24.734;2023-07-13T15:23:35;13.25;;;5.20;;
79761;SDS011;69249;42.122;24.734;2023-07-13T15:26:01;14.20;;;5.80;;
79761;SDS011;69249;42.122;24.734;2023-07-13T15:28:28;15.25;;;5.95;;
79761;SDS011;69249;42.122;24.734;2023-07-13T15:30:54;14.00;;;5.50;;
79761;SDS011;69249;42.122;24.734;2023-07-13T15:33:24;11.13;;;6.38;;
79761;SDS011;69249;42.122;24.734;2023-07-13T15:35:52;13.93;;;5.55;;
79761;SDS011;69249;42.122;24.734;2023-07-13T15:38:23;13.80;;;5.80;;